Αναφορές METAR

 

LGKV - Kavala/Chrisoupo, Greece
Απόσταση από το σταθμό: Α 54km
Ενημερώθηκε: 22/02/2018 23:50
Μερικώς Νεφελώδης
Μερικώς Νεφελώδης
 Ανεμος από ΑΒΑ
Ανεμος: ΑΒΑ 11 km/h
Θερμοκρασία: 6°C
Wind Chill: 4°C
Σημείο Δρόσου: 4°C
Υγρασία: 87%
Βαρόμετρο: 1013 hPa
Νέφωση: Μερικώς Νεφελώδης
Ορατότητα: 10 km
Λεπτομέρειες νέφωσης: Διάσπαρτα Νέφη 762 m
Μερικώς Νεφελώδης 2438 m
2018/02/22 21:50 LGKV 222150Z 07006KT 9999 FEW025 SCT080 06/04 Q1013
LGTS - Thessaloniki/Mik, Greece
Απόσταση από το σταθμό: ΔΝΔ 96km
Ενημερώθηκε: 22/02/2018 23:50
Κυρίως Νεφελώδης
Κυρίως Νεφελώδης
 Ανεμος από μεταβλητός
Ανεμος: μεταβλητός 6 km/h
Θερμοκρασία: 9°C
Σημείο Δρόσου: 7°C
Υγρασία: 87%
Βαρόμετρο: 1012 hPa
Νέφωση: Κυρίως Νεφελώδης
Ορατότητα: 10 km
Λεπτομέρειες νέφωσης: Διάσπαρτα Νέφη 183 m
Κυρίως Νεφελώδης 762 m
2018/02/22 21:50 LGTS 222150Z VRB03KT 9999 FEW006 BKN025 09/07 Q1012 NOSIG
 
LBPD - Plovdiv, Bulgaria
Απόσταση από το σταθμό: ΒΒΑ 151km
Ενημερώθηκε: 23/02/2018 00:00
Light drizzle, Mist, Νεφοσκεπής
Light drizzle, Mist, Νεφοσκεπής
 Ανεμος από calm
Ανεμος: Απνοια
Θερμοκρασία: 4°C
Σημείο Δρόσου: 4°C
Υγρασία: 100%
Βαρόμετρο: 1016 hPa
Summary: Light drizzle, Mist
Νέφωση: Νεφοσκεπής
Ορατότητα: 4 km
Λεπτομέρειες νέφωσης: Διάσπαρτα Νέφη 91 m
Κυρίως Νεφελώδης 305 m
Νεφοσκεπής 488 m
2018/02/22 22:00 LBPD 222200Z AUTO 00000KT 3700 -DZ BR FEW003/// BKN010/// OVC016/// 04/04 Q1016
LGLM - Limnos Island Ar, Greece
Απόσταση από το σταθμό: ΝΑ 154km
Ενημερώθηκε: 22/02/2018 23:50

 Ανεμος από ΒΑ
Ανεμος: ΒΑ 22 km/h
Θερμοκρασία: 10°C
Wind Chill: 7°C
Σημείο Δρόσου: 8°C
Υγρασία: 88%
Βαρόμετρο: 1012 hPa
2018/02/22 21:50 LGLM 222150Z AUTO 05012KT //// // ////// 10/08 Q1012 RE//
 
LGAL - Alexandroupolis, Greece
Απόσταση από το σταθμό: Α 166km
Ενημερώθηκε: 22/02/2018 21:20
ΜΗ ΠΡΟΣΦΑΤΟ METAR
Μερικώς Νεφελώδης
Μερικώς Νεφελώδης
 Ανεμος από ΒΑ
Ανεμος: ΒΑ 11 km/h
Θερμοκρασία: 7°C
Wind Chill: 5°C
Σημείο Δρόσου: 4°C
Υγρασία: 81%
Βαρόμετρο: 1013 hPa
Νέφωση: Μερικώς Νεφελώδης
Ορατότητα: 10 km
Λεπτομέρειες νέφωσης: Διάσπαρτα Νέφη 762 m
Μερικώς Νεφελώδης 1829 m
2018/02/22 19:20 LGAL 221920Z 05006KT 9999 FEW025 SCT060 07/04 Q1013
LGKZ - Kozani (civ/Army, Greece
Απόσταση από το σταθμό: ΔΝΔ 194km
Ενημερώθηκε: 22/02/2018 13:50
ΜΗ ΠΡΟΣΦΑΤΟ METAR
Νεφοσκεπής
Νεφοσκεπής
 Ανεμος από calm
Ανεμος: Απνοια
Θερμοκρασία: 7°C
Σημείο Δρόσου: 5°C
Υγρασία: 87%
Βαρόμετρο: 1009 hPa
Νέφωση: Νεφοσκεπής
Ορατότητα: 10 km
Λεπτομέρειες νέφωσης: Διάσπαρτα Νέφη 152 m
Μερικώς Νεφελώδης 610 m
Νεφοσκεπής 2134 m
2018/02/22 11:50 LGKZ 221150Z 00000KT 9999 FEW005 SCT020 OVC070 07/05 Q1009
 
LGSK - Skiathos Island, Greece
Απόσταση από το σταθμό: Ν 197km
Ενημερώθηκε: 22/02/2018 19:50
ΜΗ ΠΡΟΣΦΑΤΟ METAR
Μερικώς Νεφελώδης
Μερικώς Νεφελώδης
 Ανεμος από ΒΑ
Ανεμος: ΒΑ 9 km/h
Θερμοκρασία: 12°C
Σημείο Δρόσου: 8°C
Υγρασία: 77%
Βαρόμετρο: 1009 hPa
Νέφωση: Μερικώς Νεφελώδης
Ορατότητα: 10 km
Λεπτομέρειες νέφωσης: Διάσπαρτα Νέφη 244 m
Μερικώς Νεφελώδης 762 m
2018/02/22 17:50 LGSK 221750Z 04005KT 9999 FEW008 SCT025 12/08 Q1009
LBSF - Sofia (observato, Bulgaria
Απόσταση από το σταθμό: ΒΒΔ 198km
Ενημερώθηκε: 23/02/2018 00:00
Κυρίως Νεφελώδης
Κυρίως Νεφελώδης
 Ανεμος από Α
Ανεμος: Α 22 km/h
Θερμοκρασία: 3°C
Wind Chill: -2°C
Σημείο Δρόσου: 2°C
Υγρασία: 93%
Βαρόμετρο: 1014 hPa
Νέφωση: Κυρίως Νεφελώδης
Ορατότητα: 10 km
Λεπτομέρειες νέφωσης: Διάσπαρτα Νέφη 701 m
Κυρίως Νεφελώδης 1311 m
2018/02/22 22:00 LBSF 222200Z 09012KT 9999 FEW023 BKN043 03/02 Q1014 NOSIG
 
LGBL - Nea Anchialos, Greece
Απόσταση από το σταθμό: ΝΝΔ 214km
Ενημερώθηκε: 22/02/2018 23:50
Μερικώς Νεφελώδης
Μερικώς Νεφελώδης
 Ανεμος από ΔΒΔ
Ανεμος: ΔΒΔ 9 km/h
Θερμοκρασία: 10°C
Wind Chill: 9°C
Σημείο Δρόσου: 8°C
Υγρασία: 88%
Βαρόμετρο: 1011 hPa
Νέφωση: Μερικώς Νεφελώδης
Ορατότητα: 10 km
Λεπτομέρειες νέφωσης: Διάσπαρτα Νέφη 457 m
Μερικώς Νεφελώδης 914 m
2018/02/22 21:50 LGBL 222150Z 30005KT 9999 FEW015 SCT030 10/08 Q1011
LGSY - Skiros, Greece
Απόσταση από το σταθμό: ΝΝΑ 222km
Ενημερώθηκε: 22/02/2018 22:50
ΜΗ ΠΡΟΣΦΑΤΟ METAR
Μερικώς Νεφελώδης
Μερικώς Νεφελώδης
 Ανεμος από ΑΒΑ
Ανεμος: ΑΒΑ 22 km/h
Θερμοκρασία: 13°C
Σημείο Δρόσου: 11°C
Υγρασία: 88%
Βαρόμετρο: 1009 hPa
Νέφωση: Μερικώς Νεφελώδης
Ορατότητα: 10 km
Λεπτομέρειες νέφωσης: Διάσπαρτα Νέφη 549 m
Μερικώς Νεφελώδης 762 m
2018/02/22 20:50 LGSY 222050Z 07012KT 9999 FEW018TCU SCT025 13/11 Q1009 RMK BKN080 BLU
 
LTBH - Canakkale, Turkey
Απόσταση από το σταθμό: ΑΝΑ 224km
Ενημερώθηκε: 22/02/2018 23:50
Κυρίως Νεφελώδης
Κυρίως Νεφελώδης
 Ανεμος από ΒΒΑ
Ανεμος: ΒΒΑ 20 km/h
Θερμοκρασία: 9°C
Wind Chill: 6°C
Σημείο Δρόσου: 8°C
Υγρασία: 94%
Βαρόμετρο: 1013 hPa
Νέφωση: Κυρίως Νεφελώδης
Ορατότητα: 6 km
Λεπτομέρειες νέφωσης: Μερικώς Νεφελώδης 152 m
Κυρίως Νεφελώδης 914 m
Κυρίως Νεφελώδης 3048 m
2018/02/22 21:50 LTBH 222150Z 03011KT 6000 SCT005 BKN030 BKN100 09/08 Q1013
LWSK - Skopje/Petrovac, Macedonia
Απόσταση από το σταθμό: ΔΒΔ 227km
Ενημερώθηκε: 22/02/2018 23:30
Νεφοσκεπής
Νεφοσκεπής
 Ανεμος από calm
Ανεμος: Απνοια
Θερμοκρασία: 7°C
Σημείο Δρόσου: 6°C
Υγρασία: 93%
Βαρόμετρο: 1012 hPa
Νέφωση: Νεφοσκεπής
Ορατότητα: 10 km
Λεπτομέρειες νέφωσης: Μερικώς Νεφελώδης 792 m
Νεφοσκεπής 1219 m
2018/02/22 21:30 LWSK 222130Z 00000KT 9999 SCT026 OVC040 07/06 Q1012 NOSIG
 
LWOH - Ohrid, Macedonia
Απόσταση από το σταθμό: Δ 272km
Ενημερώθηκε: 22/02/2018 17:00
ΜΗ ΠΡΟΣΦΑΤΟ METAR
Κυρίως Νεφελώδης
Κυρίως Νεφελώδης
 Ανεμος από ΝΝΔ
Ανεμος: ΝΝΔ 6 km/h
Θερμοκρασία: 9°C
Σημείο Δρόσου: 2°C
Υγρασία: 62%
Βαρόμετρο: 1008 hPa
Νέφωση: Κυρίως Νεφελώδης
Ορατότητα: 10 km
Λεπτομέρειες νέφωσης: Κυρίως Νεφελώδης 1219 m
2018/02/22 15:00 LWOH 221500Z 21003KT 9999 BKN040 09/02 Q1008
LBGO - Gorna Orechovist, Bulgaria
Απόσταση από το σταθμό: ΒΒΑ 287km
Ενημερώθηκε: 23/02/2018 00:00
Νεφοσκεπής
Νεφοσκεπής
 Ανεμος από Α
Ανεμος: Α 7 km/h
Θερμοκρασία: 2°C
Wind Chill: 0°C
Σημείο Δρόσου: 2°C
Υγρασία: 100%
Βαρόμετρο: 1017 hPa
Νέφωση: Νεφοσκεπής
Ορατότητα: 10 km
Λεπτομέρειες νέφωσης: Νεφοσκεπής 396 m
2018/02/22 22:00 LBGO 222200Z AUTO 10004KT 9999 OVC013/// 02/02 Q1017
 
LTFD - Balikesir Korfez, Turkey
Απόσταση από το σταθμό: ΑΝΑ 300km
Ενημερώθηκε: 22/02/2018 22:50
ΜΗ ΠΡΟΣΦΑΤΟ METAR
Κυρίως Νεφελώδης
Κυρίως Νεφελώδης
 Ανεμος από ΑΒΑ
Ανεμος: ΑΒΑ 15 km/h
Θερμοκρασία: 10°C
Wind Chill: 8°C
Σημείο Δρόσου: 9°C
Υγρασία: 94%
Βαρόμετρο: 1011 hPa
Νέφωση: Κυρίως Νεφελώδης
Ορατότητα: 10 km
Λεπτομέρειες νέφωσης: Μερικώς Νεφελώδης 1067 m
Κυρίως Νεφελώδης 3048 m
2018/02/22 20:50 LTFD 222050Z 07008KT 9999 SCT035 BKN100 10/09 Q1011
LGIO - Ioannina, Greece
Απόσταση από το σταθμό: ΔΝΔ 300km
Ενημερώθηκε: 22/02/2018 23:50
Διάσπαρτα Νέφη
Διάσπαρτα Νέφη
 Ανεμος από μεταβλητός
Ανεμος: μεταβλητός 0 km/h
Θερμοκρασία: 5°C
Σημείο Δρόσου: 5°C
Υγρασία: 100%
Βαρόμετρο: 1009 hPa
Νέφωση: Διάσπαρτα Νέφη
Ορατότητα: 10 km
Λεπτομέρειες νέφωσης: Διάσπαρτα Νέφη 762 m
2018/02/22 21:50 LGIO 222150Z /////KT 9999 FEW025 05/05 Q1009
 
LGMT - Mitilini, Greece
Απόσταση από το σταθμό: ΝΑ 305km
Ενημερώθηκε: 22/02/2018 22:20
ΜΗ ΠΡΟΣΦΑΤΟ METAR
Μερικώς Νεφελώδης
Μερικώς Νεφελώδης
 Ανεμος από ΔΝΔ
Ανεμος: ΔΝΔ 7 km/h
Θερμοκρασία: 10°C
Wind Chill: 9°C
Σημείο Δρόσου: 8°C
Υγρασία: 88%
Βαρόμετρο: 1010 hPa
Νέφωση: Μερικώς Νεφελώδης
Ορατότητα: 10 km
Λεπτομέρειες νέφωσης: Διάσπαρτα Νέφη 610 m
Μερικώς Νεφελώδης 914 m
2018/02/22 20:20 LGMT 222020Z 24004KT 9999 FEW020TCU SCT030 10/08 Q1010
BKPR - Prishtina, Yugoslavia
Απόσταση από το σταθμό: ΒΔ 306km
Ενημερώθηκε: 23/02/2018 00:00
Κυρίως Νεφελώδης
Κυρίως Νεφελώδης
 Ανεμος από Β
Ανεμος: Β 15 km/h
Θερμοκρασία: 4°C
Wind Chill: 1°C
Σημείο Δρόσου: 1°C
Υγρασία: 81%
Βαρόμετρο: 1011 hPa
Νέφωση: Κυρίως Νεφελώδης
Ορατότητα: 10 km
Λεπτομέρειες νέφωσης: Κυρίως Νεφελώδης 1524 m
2018/02/22 22:00 BKPR 222200Z 35008KT 9999 BKN050 04/01 Q1011 NOSIG RMK 17290095
 
LYNI - Nis, Yugoslavia
Απόσταση από το σταθμό: ΒΒΔ 317km
Ενημερώθηκε: 23/02/2018 00:00
Κυρίως Νεφελώδης
Κυρίως Νεφελώδης
 Ανεμος από ΑΒΑ
Ανεμος: ΑΒΑ 19 km/h
Θερμοκρασία: 3°C
Wind Chill: -2°C
Σημείο Δρόσου: -3°C
Υγρασία: 65%
Βαρόμετρο: 1014 hPa
Νέφωση: Κυρίως Νεφελώδης
Ορατότητα: 10 km
Λεπτομέρειες νέφωσης: Διάσπαρτα Νέφη 457 m
Κυρίως Νεφελώδης 1219 m
2018/02/22 22:00 LYNI 222200Z 06010KT 9999 FEW015 BKN040 03/M03 Q1014
LGEL - Elefsis (hel-Afb, Greece
Απόσταση από το σταθμό: Ν 319km
Ενημερώθηκε: 22/02/2018 23:50
Διάσπαρτα Νέφη
Διάσπαρτα Νέφη
 Ανεμος από ΒΒΔ
Ανεμος: ΒΒΔ 11 km/h
Θερμοκρασία: 10°C
Wind Chill: 8°C
Σημείο Δρόσου: 9°C
Υγρασία: 94%
Βαρόμετρο: 1010 hPa
Νέφωση: Διάσπαρτα Νέφη
Ορατότητα: 10 km
Λεπτομέρειες νέφωσης: Διάσπαρτα Νέφη 610 m
2018/02/22 21:50 LGEL 222150Z 34006KT 9999 FEW020 10/09 Q1010


 ♦     ♦     ♦     Ποτέ μη βασίζετε κρίσιμες αποφάσεις σ'αυτές ή οποιεσδήποτε πληροφορίες καιρού από το Internet     ♦     ♦     ♦